sensor_id;sensor_type;location;lat;lon;timestamp;temperature;humidity
73121;DHT22;61307;49.628;-1.624;2023-12-20T00:01:16;18.10;46.20
73121;DHT22;61307;49.628;-1.624;2023-12-20T00:03:43;18.20;46.30
73121;DHT22;61307;49.628;-1.624;2023-12-20T00:06:11;18.20;46.40
73121;DHT22;61307;49.628;-1.624;2023-12-20T00:08:38;18.20;46.30
73121;DHT22;61307;49.628;-1.624;2023-12-20T00:11:04;18.20;46.40
73121;DHT22;61307;49.628;-1.624;2023-12-20T00:13:31;18.10;46.30
73121;DHT22;61307;49.628;-1.624;2023-12-20T00:15:58;18.10;46.30
73121;DHT22;61307;49.628;-1.624;2023-12-20T00:18:24;18.10;46.30
73121;DHT22;61307;49.628;-1.624;2023-12-20T00:20:51;18.10;46.90
73121;DHT22;61307;49.628;-1.624;2023-12-20T00:23:19;18.10;46.30
73121;DHT22;61307;49.628;-1.624;2023-12-20T00:25:48;18.10;46.40
73121;DHT22;61307;49.628;-1.624;2023-12-20T00:28:15;18.10;47.00
73121;DHT22;61307;49.628;-1.624;2023-12-20T00:30:42;18.10;46.30
73121;DHT22;61307;49.628;-1.624;2023-12-20T00:33:09;18.10;46.40
73121;DHT22;61307;49.628;-1.624;2023-12-20T00:35:36;18.10;46.30
73121;DHT22;61307;49.628;-1.624;2023-12-20T00:38:03;18.10;46.40
73121;DHT22;61307;49.628;-1.624;2023-12-20T00:40:32;18.10;46.30
73121;DHT22;61307;49.628;-1.624;2023-12-20T00:42:58;18.10;46.40
73121;DHT22;61307;49.628;-1.624;2023-12-20T00:45:25;18.10;46.40
73121;DHT22;61307;49.628;-1.624;2023-12-20T00:47:52;18.10;46.40
73121;DHT22;61307;49.628;-1.624;2023-12-20T00:50:19;18.00;46.30
73121;DHT22;61307;49.628;-1.624;2023-12-20T00:52:47;18.10;46.30
73121;DHT22;61307;49.628;-1.624;2023-12-20T00:55:14;18.10;46.40
73121;DHT22;61307;49.628;-1.624;2023-12-20T00:57:42;18.00;46.30
73121;DHT22;61307;49.628;-1.624;2023-12-20T01:00:10;18.00;46.20
73121;DHT22;61307;49.628;-1.624;2023-12-20T01:02:37;18.10;46.40
73121;DHT22;61307;49.628;-1.624;2023-12-20T01:05:04;18.00;46.20
73121;DHT22;61307;49.628;-1.624;2023-12-20T01:07:32;18.00;46.30
73121;DHT22;61307;49.628;-1.624;2023-12-20T01:09:59;18.00;46.20
73121;DHT22;61307;49.628;-1.624;2023-12-20T01:12:26;18.00;46.30
73121;DHT22;61307;49.628;-1.624;2023-12-20T01:14:53;18.00;46.30
73121;DHT22;61307;49.628;-1.624;2023-12-20T01:17:20;18.00;46.30
73121;DHT22;61307;49.628;-1.624;2023-12-20T01:19:47;18.00;46.30
73121;DHT22;61307;49.628;-1.624;2023-12-20T01:22:14;18.00;46.30
73121;DHT22;61307;49.628;-1.624;2023-12-20T01:24:41;18.00;46.30
73121;DHT22;61307;49.628;-1.624;2023-12-20T01:27:08;18.00;46.30
73121;DHT22;61307;49.628;-1.624;2023-12-20T01:29:35;18.00;47.00
73121;DHT22;61307;49.628;-1.624;2023-12-20T01:32:03;17.90;46.20
73121;DHT22;61307;49.628;-1.624;2023-12-20T01:34:30;18.00;46.30
73121;DHT22;61307;49.628;-1.624;2023-12-20T01:36:57;18.00;46.20
73121;DHT22;61307;49.628;-1.624;2023-12-20T01:39:24;18.00;46.20
73121;DHT22;61307;49.628;-1.624;2023-12-20T01:41:50;18.00;46.70
73121;DHT22;61307;49.628;-1.624;2023-12-20T01:44:17;17.90;46.00
73121;DHT22;61307;49.628;-1.624;2023-12-20T01:46:45;17.90;46.00
73121;DHT22;61307;49.628;-1.624;2023-12-20T01:49:14;18.00;46.10
73121;DHT22;61307;49.628;-1.624;2023-12-20T01:51:41;17.90;46.00
73121;DHT22;61307;49.628;-1.624;2023-12-20T01:54:08;17.90;46.00
73121;DHT22;61307;49.628;-1.624;2023-12-20T01:56:35;17.90;46.70
73121;DHT22;61307;49.628;-1.624;2023-12-20T01:59:03;17.90;46.10
73121;DHT22;61307;49.628;-1.624;2023-12-20T02:01:30;17.90;46.10
73121;DHT22;61307;49.628;-1.624;2023-12-20T02:03:58;17.90;46.10
73121;DHT22;61307;49.628;-1.624;2023-12-20T02:06:30;17.90;46.10
73121;DHT22;61307;49.628;-1.624;2023-12-20T02:08:57;17.90;46.10
73121;DHT22;61307;49.628;-1.624;2023-12-20T02:11:25;17.90;46.70
73121;DHT22;61307;49.628;-1.624;2023-12-20T02:13:52;17.90;46.20
73121;DHT22;61307;49.628;-1.624;2023-12-20T02:16:19;17.90;46.70
73121;DHT22;61307;49.628;-1.624;2023-12-20T02:18:47;17.80;46.00
73121;DHT22;61307;49.628;-1.624;2023-12-20T02:21:14;17.90;46.10
73121;DHT22;61307;49.628;-1.624;2023-12-20T02:23:43;17.90;46.10
73121;DHT22;61307;49.628;-1.624;2023-12-20T02:26:10;17.90;46.20
73121;DHT22;61307;49.628;-1.624;2023-12-20T02:28:39;17.80;46.00
73121;DHT22;61307;49.628;-1.624;2023-12-20T02:31:06;17.80;46.70
73121;DHT22;61307;49.628;-1.624;2023-12-20T02:33:33;17.80;46.10
73121;DHT22;61307;49.628;-1.624;2023-12-20T02:36:00;17.80;46.00
73121;DHT22;61307;49.628;-1.624;2023-12-20T02:38:27;17.80;46.70
73121;DHT22;61307;49.628;-1.624;2023-12-20T02:40:55;17.80;46.00
73121;DHT22;61307;49.628;-1.624;2023-12-20T02:43:22;17.80;46.70
73121;DHT22;61307;49.628;-1.624;2023-12-20T02:45:49;17.80;46.00
73121;DHT22;61307;49.628;-1.624;2023-12-20T02:48:15;17.80;46.70
73121;DHT22;61307;49.628;-1.624;2023-12-20T02:50:42;17.80;46.10
73121;DHT22;61307;49.628;-1.624;2023-12-20T02:53:09;17.80;46.10
73121;DHT22;61307;49.628;-1.624;2023-12-20T02:55:36;17.80;46.70
73121;DHT22;61307;49.628;-1.624;2023-12-20T02:58:04;17.80;46.00
73121;DHT22;61307;49.628;-1.624;2023-12-20T03:00:31;17.80;46.00
73121;DHT22;61307;49.628;-1.624;2023-12-20T03:02:58;17.80;46.00
73121;DHT22;61307;49.628;-1.624;2023-12-20T03:05:25;17.80;46.10
73121;DHT22;61307;49.628;-1.624;2023-12-20T03:07:52;17.80;46.00
73121;DHT22;61307;49.628;-1.624;2023-12-20T03:10:19;17.80;46.00
73121;DHT22;61307;49.628;-1.624;2023-12-20T03:12:46;17.80;46.70
73121;DHT22;61307;49.628;-1.624;2023-12-20T03:15:14;17.80;46.00
73121;DHT22;61307;49.628;-1.624;2023-12-20T03:17:41;17.80;46.10
73121;DHT22;61307;49.628;-1.624;2023-12-20T03:20:08;17.70;45.90
73121;DHT22;61307;49.628;-1.624;2023-12-20T03:22:35;17.70;45.90
73121;DHT22;61307;49.628;-1.624;2023-12-20T03:25:02;17.70;45.90
73121;DHT22;61307;49.628;-1.624;2023-12-20T03:27:29;17.70;45.90
73121;DHT22;61307;49.628;-1.624;2023-12-20T03:29:56;17.70;46.60
73121;DHT22;61307;49.628;-1.624;2023-12-20T03:32:24;17.70;46.00
73121;DHT22;61307;49.628;-1.624;2023-12-20T03:34:51;17.70;46.00
73121;DHT22;61307;49.628;-1.624;2023-12-20T03:37:18;17.70;46.00
73121;DHT22;61307;49.628;-1.624;2023-12-20T03:39:45;17.70;46.60
73121;DHT22;61307;49.628;-1.624;2023-12-20T03:42:11;17.70;45.90
73121;DHT22;61307;49.628;-1.624;2023-12-20T03:44:39;17.70;46.00
73121;DHT22;61307;49.628;-1.624;2023-12-20T03:47:06;17.70;45.90
73121;DHT22;61307;49.628;-1.624;2023-12-20T03:49:34;17.70;46.00
73121;DHT22;61307;49.628;-1.624;2023-12-20T03:52:03;17.70;46.00
73121;DHT22;61307;49.628;-1.624;2023-12-20T03:54:30;17.70;46.00
73121;DHT22;61307;49.628;-1.624;2023-12-20T03:56:56;17.70;46.00
73121;DHT22;61307;49.628;-1.624;2023-12-20T03:59:23;17.70;46.00
73121;DHT22;61307;49.628;-1.624;2023-12-20T04:01:50;17.70;46.00
73121;DHT22;61307;49.628;-1.624;2023-12-20T04:04:17;17.70;46.00
73121;DHT22;61307;49.628;-1.624;2023-12-20T04:06:45;17.70;46.70
73121;DHT22;61307;49.628;-1.624;2023-12-20T04:09:12;17.70;46.00
73121;DHT22;61307;49.628;-1.624;2023-12-20T04:11:39;17.70;46.00
73121;DHT22;61307;49.628;-1.624;2023-12-20T04:14:06;17.60;46.60
73121;DHT22;61307;49.628;-1.624;2023-12-20T04:16:33;17.70;46.60
73121;DHT22;61307;49.628;-1.624;2023-12-20T04:19:00;17.60;45.90
73121;DHT22;61307;49.628;-1.624;2023-12-20T04:21:26;17.60;45.90
73121;DHT22;61307;49.628;-1.624;2023-12-20T04:23:55;17.70;46.00
73121;DHT22;61307;49.628;-1.624;2023-12-20T04:26:21;17.60;45.90
73121;DHT22;61307;49.628;-1.624;2023-12-20T04:28:48;17.60;45.90
73121;DHT22;61307;49.628;-1.624;2023-12-20T04:31:15;17.60;46.60
73121;DHT22;61307;49.628;-1.624;2023-12-20T04:33:42;17.60;45.90
73121;DHT22;61307;49.628;-1.624;2023-12-20T04:36:09;17.60;45.90
73121;DHT22;61307;49.628;-1.624;2023-12-20T04:38:36;17.60;46.60
73121;DHT22;61307;49.628;-1.624;2023-12-20T04:41:04;17.60;46.00
73121;DHT22;61307;49.628;-1.624;2023-12-20T04:43:31;17.60;46.60
73121;DHT22;61307;49.628;-1.624;2023-12-20T04:45:58;17.60;46.60
73121;DHT22;61307;49.628;-1.624;2023-12-20T04:48:25;17.60;46.60
73121;DHT22;61307;49.628;-1.624;2023-12-20T04:50:51;17.50;45.90
73121;DHT22;61307;49.628;-1.624;2023-12-20T04:53:18;17.60;45.90
73121;DHT22;61307;49.628;-1.624;2023-12-20T04:55:45;17.60;46.00
73121;DHT22;61307;49.628;-1.624;2023-12-20T04:58:13;17.60;46.10
73121;DHT22;61307;49.628;-1.624;2023-12-20T05:00:40;17.60;46.00
73121;DHT22;61307;49.628;-1.624;2023-12-20T05:03:07;17.60;46.60
73121;DHT22;61307;49.628;-1.624;2023-12-20T05:05:34;17.60;46.00
73121;DHT22;61307;49.628;-1.624;2023-12-20T05:08:01;17.60;46.00
73121;DHT22;61307;49.628;-1.624;2023-12-20T05:10:29;17.50;46.00
73121;DHT22;61307;49.628;-1.624;2023-12-20T05:12:56;17.50;45.90
73121;DHT22;61307;49.628;-1.624;2023-12-20T05:15:24;17.50;46.60
73121;DHT22;61307;49.628;-1.624;2023-12-20T05:17:51;17.50;46.60
73121;DHT22;61307;49.628;-1.624;2023-12-20T05:20:18;17.50;46.00
73121;DHT22;61307;49.628;-1.624;2023-12-20T05:22:45;17.50;46.00
73121;DHT22;61307;49.628;-1.624;2023-12-20T05:25:12;17.50;46.00
73121;DHT22;61307;49.628;-1.624;2023-12-20T05:27:39;17.50;45.90
73121;DHT22;61307;49.628;-1.624;2023-12-20T05:30:07;17.50;46.00
73121;DHT22;61307;49.628;-1.624;2023-12-20T05:32:35;17.50;46.00
73121;DHT22;61307;49.628;-1.624;2023-12-20T05:35:03;17.50;46.70
73121;DHT22;61307;49.628;-1.624;2023-12-20T05:37:30;17.50;46.00
73121;DHT22;61307;49.628;-1.624;2023-12-20T05:39:56;17.50;46.00
73121;DHT22;61307;49.628;-1.624;2023-12-20T05:42:23;17.50;46.00
73121;DHT22;61307;49.628;-1.624;2023-12-20T05:44:50;17.60;46.10
73121;DHT22;61307;49.628;-1.624;2023-12-20T05:47:17;17.70;46.20
73121;DHT22;61307;49.628;-1.624;2023-12-20T05:49:45;17.80;46.20
73121;DHT22;61307;49.628;-1.624;2023-12-20T05:52:12;18.00;46.10
73121;DHT22;61307;49.628;-1.624;2023-12-20T05:54:39;18.10;46.00
73121;DHT22;61307;49.628;-1.624;2023-12-20T05:57:06;18.20;45.80
73121;DHT22;61307;49.628;-1.624;2023-12-20T05:59:32;18.20;45.60
73121;DHT22;61307;49.628;-1.624;2023-12-20T06:01:59;18.30;45.60
73121;DHT22;61307;49.628;-1.624;2023-12-20T06:04:26;18.30;45.40
73121;DHT22;61307;49.628;-1.624;2023-12-20T06:06:54;18.40;45.40
73121;DHT22;61307;49.628;-1.624;2023-12-20T06:09:21;18.40;45.20
73121;DHT22;61307;49.628;-1.624;2023-12-20T06:11:48;18.40;45.00
73121;DHT22;61307;49.628;-1.624;2023-12-20T06:14:15;18.40;45.00
73121;DHT22;61307;49.628;-1.624;2023-12-20T06:16:42;18.40;44.90
73121;DHT22;61307;49.628;-1.624;2023-12-20T06:19:09;18.40;44.90
73121;DHT22;61307;49.628;-1.624;2023-12-20T06:21:35;18.30;44.80
73121;DHT22;61307;49.628;-1.624;2023-12-20T06:24:04;18.40;45.10
73121;DHT22;61307;49.628;-1.624;2023-12-20T06:26:31;18.30;45.70
73121;DHT22;61307;49.628;-1.624;2023-12-20T06:28:58;18.30;45.20
73121;DHT22;61307;49.628;-1.624;2023-12-20T06:31:25;18.30;45.30
73121;DHT22;61307;49.628;-1.624;2023-12-20T06:33:52;18.30;45.30
73121;DHT22;61307;49.628;-1.624;2023-12-20T06:36:23;18.20;45.30
73121;DHT22;61307;49.628;-1.624;2023-12-20T06:38:49;18.20;46.00
73121;DHT22;61307;49.628;-1.624;2023-12-20T06:41:18;18.20;46.00
73121;DHT22;61307;49.628;-1.624;2023-12-20T06:43:45;18.10;46.10
73121;DHT22;61307;49.628;-1.624;2023-12-20T06:46:12;18.10;45.40
73121;DHT22;61307;49.628;-1.624;2023-12-20T06:48:39;18.10;45.50
73121;DHT22;61307;49.628;-1.624;2023-12-20T06:51:06;18.10;45.60
73121;DHT22;61307;49.628;-1.624;2023-12-20T06:53:33;18.00;45.50
73121;DHT22;61307;49.628;-1.624;2023-12-20T06:56:00;18.00;45.60
73121;DHT22;61307;49.628;-1.624;2023-12-20T06:58:29;18.00;45.60
73121;DHT22;61307;49.628;-1.624;2023-12-20T07:00:56;18.00;45.70
73121;DHT22;61307;49.628;-1.624;2023-12-20T07:03:23;18.00;45.70
73121;DHT22;61307;49.628;-1.624;2023-12-20T07:05:50;18.00;45.80
73121;DHT22;61307;49.628;-1.624;2023-12-20T07:08:17;17.90;45.70
73121;DHT22;61307;49.628;-1.624;2023-12-20T07:10:44;17.90;45.80
73121;DHT22;61307;49.628;-1.624;2023-12-20T07:13:11;17.90;45.90
73121;DHT22;61307;49.628;-1.624;2023-12-20T07:15:41;17.90;45.90
73121;DHT22;61307;49.628;-1.624;2023-12-20T07:18:07;17.80;45.80
73121;DHT22;61307;49.628;-1.624;2023-12-20T07:20:34;17.80;45.90
73121;DHT22;61307;49.628;-1.624;2023-12-20T07:23:01;17.80;45.90
73121;DHT22;61307;49.628;-1.624;2023-12-20T07:25:28;17.80;45.90
73121;DHT22;61307;49.628;-1.624;2023-12-20T07:27:57;17.80;45.90
73121;DHT22;61307;49.628;-1.624;2023-12-20T07:30:24;17.80;46.00
73121;DHT22;61307;49.628;-1.624;2023-12-20T07:32:53;17.80;45.90
73121;DHT22;61307;49.628;-1.624;2023-12-20T07:35:19;17.80;46.00
73121;DHT22;61307;49.628;-1.624;2023-12-20T07:37:46;17.80;46.70
73121;DHT22;61307;49.628;-1.624;2023-12-20T07:40:13;17.80;46.00
73121;DHT22;61307;49.628;-1.624;2023-12-20T07:42:42;17.80;46.10
73121;DHT22;61307;49.628;-1.624;2023-12-20T07:45:09;17.70;46.70
73121;DHT22;61307;49.628;-1.624;2023-12-20T07:47:37;17.70;46.00
73121;DHT22;61307;49.628;-1.624;2023-12-20T07:50:06;17.70;46.10
73121;DHT22;61307;49.628;-1.624;2023-12-20T07:52:33;17.70;46.20
73121;DHT22;61307;49.628;-1.624;2023-12-20T07:55:00;17.70;46.20
73121;DHT22;61307;49.628;-1.624;2023-12-20T07:57:29;17.70;46.20
73121;DHT22;61307;49.628;-1.624;2023-12-20T07:59:56;17.70;46.20
73121;DHT22;61307;49.628;-1.624;2023-12-20T08:02:23;17.70;46.20
73121;DHT22;61307;49.628;-1.624;2023-12-20T08:04:49;17.70;46.20
73121;DHT22;61307;49.628;-1.624;2023-12-20T08:07:18;17.70;46.50
73121;DHT22;61307;49.628;-1.624;2023-12-20T08:09:44;17.70;46.70
73121;DHT22;61307;49.628;-1.624;2023-12-20T08:12:11;17.70;46.60
73121;DHT22;61307;49.628;-1.624;2023-12-20T08:14:38;17.80;47.00
73121;DHT22;61307;49.628;-1.624;2023-12-20T08:17:05;17.80;46.70
73121;DHT22;61307;49.628;-1.624;2023-12-20T08:19:32;17.80;46.70
73121;DHT22;61307;49.628;-1.624;2023-12-20T08:21:59;17.80;46.70
73121;DHT22;61307;49.628;-1.624;2023-12-20T08:24:27;17.80;46.60
73121;DHT22;61307;49.628;-1.624;2023-12-20T08:26:55;17.90;46.70
73121;DHT22;61307;49.628;-1.624;2023-12-20T08:29:29;17.90;46.70
73121;DHT22;61307;49.628;-1.624;2023-12-20T08:32:03;17.90;46.70
73121;DHT22;61307;49.628;-1.624;2023-12-20T08:34:42;17.90;46.80
73121;DHT22;61307;49.628;-1.624;2023-12-20T08:37:15;17.90;47.10
73121;DHT22;61307;49.628;-1.624;2023-12-20T08:39:46;17.90;47.00
73121;DHT22;61307;49.628;-1.624;2023-12-20T08:42:13;18.00;47.10
73121;DHT22;61307;49.628;-1.624;2023-12-20T08:44:40;18.00;47.70
73121;DHT22;61307;49.628;-1.624;2023-12-20T08:47:08;18.00;46.90
73121;DHT22;61307;49.628;-1.624;2023-12-20T08:49:42;17.90;46.90
73121;DHT22;61307;49.628;-1.624;2023-12-20T08:52:12;17.90;46.90
73121;DHT22;61307;49.628;-1.624;2023-12-20T08:54:40;17.90;47.00
73121;DHT22;61307;49.628;-1.624;2023-12-20T08:57:09;18.00;47.30
73121;DHT22;61307;49.628;-1.624;2023-12-20T08:59:36;18.00;48.10
73121;DHT22;61307;49.628;-1.624;2023-12-20T09:02:03;18.00;48.00
73121;DHT22;61307;49.628;-1.624;2023-12-20T09:04:30;18.00;47.20
73121;DHT22;61307;49.628;-1.624;2023-12-20T09:06:59;18.10;47.50
73121;DHT22;61307;49.628;-1.624;2023-12-20T09:09:26;18.10;47.50
73121;DHT22;61307;49.628;-1.624;2023-12-20T09:11:53;18.10;47.50
73121;DHT22;61307;49.628;-1.624;2023-12-20T09:14:22;18.10;48.30
73121;DHT22;61307;49.628;-1.624;2023-12-20T09:16:49;18.10;47.50
73121;DHT22;61307;49.628;-1.624;2023-12-20T09:19:16;18.10;47.50
73121;DHT22;61307;49.628;-1.624;2023-12-20T09:21:43;18.20;48.10
73121;DHT22;61307;49.628;-1.624;2023-12-20T09:24:10;18.10;47.30
73121;DHT22;61307;49.628;-1.624;2023-12-20T09:26:37;18.10;47.40
73121;DHT22;61307;49.628;-1.624;2023-12-20T09:29:05;18.10;47.60
73121;DHT22;61307;49.628;-1.624;2023-12-20T09:31:36;18.10;47.50
73121;DHT22;61307;49.628;-1.624;2023-12-20T09:34:03;18.00;47.50
73121;DHT22;61307;49.628;-1.624;2023-12-20T09:36:30;18.10;47.70
73121;DHT22;61307;49.628;-1.624;2023-12-20T09:39:01;18.10;47.80
73121;DHT22;61307;49.628;-1.624;2023-12-20T09:41:31;18.20;47.90
73121;DHT22;61307;49.628;-1.624;2023-12-20T09:44:02;18.20;47.90
73121;DHT22;61307;49.628;-1.624;2023-12-20T09:46:34;18.10;47.80
73121;DHT22;61307;49.628;-1.624;2023-12-20T09:49:01;18.20;47.90
73121;DHT22;61307;49.628;-1.624;2023-12-20T09:51:30;18.20;47.80
73121;DHT22;61307;49.628;-1.624;2023-12-20T09:53:59;18.20;47.90
73121;DHT22;61307;49.628;-1.624;2023-12-20T09:56:26;18.20;47.80
73121;DHT22;61307;49.628;-1.624;2023-12-20T09:58:54;18.20;47.90
73121;DHT22;61307;49.628;-1.624;2023-12-20T10:01:23;18.20;47.90
73121;DHT22;61307;49.628;-1.624;2023-12-20T10:03:54;18.30;47.90
73121;DHT22;61307;49.628;-1.624;2023-12-20T10:06:21;18.30;48.00
73121;DHT22;61307;49.628;-1.624;2023-12-20T10:08:48;18.30;47.90
73121;DHT22;61307;49.628;-1.624;2023-12-20T10:11:15;18.30;47.90
73121;DHT22;61307;49.628;-1.624;2023-12-20T10:13:42;18.40;48.00
73121;DHT22;61307;49.628;-1.624;2023-12-20T10:16:09;18.40;48.00
73121;DHT22;61307;49.628;-1.624;2023-12-20T10:18:36;18.40;48.00
73121;DHT22;61307;49.628;-1.624;2023-12-20T10:21:06;18.40;48.00
73121;DHT22;61307;49.628;-1.624;2023-12-20T10:23:33;18.40;48.10
73121;DHT22;61307;49.628;-1.624;2023-12-20T10:26:00;18.40;48.10
73121;DHT22;61307;49.628;-1.624;2023-12-20T10:28:33;18.50;48.10
73121;DHT22;61307;49.628;-1.624;2023-12-20T10:31:00;18.50;48.10
73121;DHT22;61307;49.628;-1.624;2023-12-20T10:33:28;18.50;48.20
73121;DHT22;61307;49.628;-1.624;2023-12-20T10:35:56;18.50;48.10
73121;DHT22;61307;49.628;-1.624;2023-12-20T10:38:24;18.50;48.00
73121;DHT22;61307;49.628;-1.624;2023-12-20T10:40:56;18.50;48.70
73121;DHT22;61307;49.628;-1.624;2023-12-20T10:43:24;18.50;48.00
73121;DHT22;61307;49.628;-1.624;2023-12-20T10:45:52;18.50;48.00
73121;DHT22;61307;49.628;-1.624;2023-12-20T10:48:20;18.50;48.00
73121;DHT22;61307;49.628;-1.624;2023-12-20T10:50:53;18.50;48.30
73121;DHT22;61307;49.628;-1.624;2023-12-20T10:53:23;18.50;48.50
73121;DHT22;61307;49.628;-1.624;2023-12-20T10:55:52;18.60;48.30
73121;DHT22;61307;49.628;-1.624;2023-12-20T10:58:22;18.60;48.60
73121;DHT22;61307;49.628;-1.624;2023-12-20T11:00:54;18.60;48.30
73121;DHT22;61307;49.628;-1.624;2023-12-20T11:03:24;18.60;48.40
73121;DHT22;61307;49.628;-1.624;2023-12-20T11:05:56;18.60;48.20
73121;DHT22;61307;49.628;-1.624;2023-12-20T11:08:31;18.60;48.30
73121;DHT22;61307;49.628;-1.624;2023-12-20T11:11:04;18.50;48.20
73121;DHT22;61307;49.628;-1.624;2023-12-20T11:13:36;18.50;48.10
73121;DHT22;61307;49.628;-1.624;2023-12-20T11:16:04;18.50;48.10
73121;DHT22;61307;49.628;-1.624;2023-12-20T11:18:33;18.50;48.10
73121;DHT22;61307;49.628;-1.624;2023-12-20T11:21:05;18.40;48.00
73121;DHT22;61307;49.628;-1.624;2023-12-20T11:23:33;18.40;48.10
73121;DHT22;61307;49.628;-1.624;2023-12-20T11:26:01;18.40;48.10
73121;DHT22;61307;49.628;-1.624;2023-12-20T11:28:29;18.40;48.10
73121;DHT22;61307;49.628;-1.624;2023-12-20T11:30:57;18.30;48.10
73121;DHT22;61307;49.628;-1.624;2023-12-20T11:33:26;18.30;48.10
73121;DHT22;61307;49.628;-1.624;2023-12-20T11:35:55;18.30;48.10
73121;DHT22;61307;49.628;-1.624;2023-12-20T11:38:23;18.30;48.10
73121;DHT22;61307;49.628;-1.624;2023-12-20T11:40:54;18.30;48.10
73121;DHT22;61307;49.628;-1.624;2023-12-20T11:43:31;18.20;48.10
73121;DHT22;61307;49.628;-1.624;2023-12-20T11:46:03;18.20;48.10
73121;DHT22;61307;49.628;-1.624;2023-12-20T11:48:31;18.20;48.10
73121;DHT22;61307;49.628;-1.624;2023-12-20T11:50:58;18.20;48.10
73121;DHT22;61307;49.628;-1.624;2023-12-20T11:53:26;18.20;48.10
73121;DHT22;61307;49.628;-1.624;2023-12-20T11:55:55;18.10;48.10
73121;DHT22;61307;49.628;-1.624;2023-12-20T11:58:22;18.10;48.10
73121;DHT22;61307;49.628;-1.624;2023-12-20T12:00:49;18.20;48.10
73121;DHT22;61307;49.628;-1.624;2023-12-20T12:03:17;18.10;48.10
73121;DHT22;61307;49.628;-1.624;2023-12-20T12:05:47;18.10;48.10
73121;DHT22;61307;49.628;-1.624;2023-12-20T12:08:14;18.10;48.10
73121;DHT22;61307;49.628;-1.624;2023-12-20T12:10:41;18.10;48.10
73121;DHT22;61307;49.628;-1.624;2023-12-20T12:13:09;18.10;48.10
73121;DHT22;61307;49.628;-1.624;2023-12-20T12:15:37;18.10;48.10
73121;DHT22;61307;49.628;-1.624;2023-12-20T12:18:05;18.10;48.10
73121;DHT22;61307;49.628;-1.624;2023-12-20T12:20:32;18.10;48.10
73121;DHT22;61307;49.628;-1.624;2023-12-20T12:22:59;18.10;48.20
73121;DHT22;61307;49.628;-1.624;2023-12-20T12:25:28;18.10;48.80
73121;DHT22;61307;49.628;-1.624;2023-12-20T12:27:55;18.10;48.20
73121;DHT22;61307;49.628;-1.624;2023-12-20T12:30:24;18.00;48.10
73121;DHT22;61307;49.628;-1.624;2023-12-20T12:32:52;18.00;48.10
73121;DHT22;61307;49.628;-1.624;2023-12-20T12:35:19;18.00;48.10
73121;DHT22;61307;49.628;-1.624;2023-12-20T12:37:46;18.00;48.20
73121;DHT22;61307;49.628;-1.624;2023-12-20T12:40:15;18.00;48.30
73121;DHT22;61307;49.628;-1.624;2023-12-20T12:42:44;18.00;48.30
73121;DHT22;61307;49.628;-1.624;2023-12-20T12:45:11;18.00;48.30
73121;DHT22;61307;49.628;-1.624;2023-12-20T12:47:40;18.00;48.30
73121;DHT22;61307;49.628;-1.624;2023-12-20T12:50:07;18.00;48.40
73121;DHT22;61307;49.628;-1.624;2023-12-20T12:52:35;18.00;48.40
73121;DHT22;61307;49.628;-1.624;2023-12-20T12:55:03;18.00;48.40
73121;DHT22;61307;49.628;-1.624;2023-12-20T12:57:30;18.00;48.40
73121;DHT22;61307;49.628;-1.624;2023-12-20T12:59:57;18.00;48.50
73121;DHT22;61307;49.628;-1.624;2023-12-20T13:02:24;18.00;48.50
73121;DHT22;61307;49.628;-1.624;2023-12-20T13:04:53;18.00;48.50
73121;DHT22;61307;49.628;-1.624;2023-12-20T13:07:20;18.00;48.60
73121;DHT22;61307;49.628;-1.624;2023-12-20T13:09:49;18.00;48.70
73121;DHT22;61307;49.628;-1.624;2023-12-20T13:12:17;18.00;48.90
73121;DHT22;61307;49.628;-1.624;2023-12-20T13:14:45;18.00;49.00
73121;DHT22;61307;49.628;-1.624;2023-12-20T13:17:13;18.00;49.20
73121;DHT22;61307;49.628;-1.624;2023-12-20T13:19:42;18.10;49.40
73121;DHT22;61307;49.628;-1.624;2023-12-20T13:22:15;18.10;49.30
73121;DHT22;61307;49.628;-1.624;2023-12-20T13:24:46;18.30;49.50
73121;DHT22;61307;49.628;-1.624;2023-12-20T13:27:13;18.40;49.60
73121;DHT22;61307;49.628;-1.624;2023-12-20T13:29:40;18.50;49.70
73121;DHT22;61307;49.628;-1.624;2023-12-20T13:32:07;18.70;49.80
73121;DHT22;61307;49.628;-1.624;2023-12-20T13:34:34;18.90;49.70
73121;DHT22;61307;49.628;-1.624;2023-12-20T13:37:01;19.00;49.50
73121;DHT22;61307;49.628;-1.624;2023-12-20T13:39:29;19.20;49.30
73121;DHT22;61307;49.628;-1.624;2023-12-20T13:41:57;19.30;49.20
73121;DHT22;61307;49.628;-1.624;2023-12-20T13:44:24;19.40;48.90
73121;DHT22;61307;49.628;-1.624;2023-12-20T13:46:52;19.50;48.90
73121;DHT22;61307;49.628;-1.624;2023-12-20T13:49:19;19.60;48.70
73121;DHT22;61307;49.628;-1.624;2023-12-20T13:51:46;19.80;48.70
73121;DHT22;61307;49.628;-1.624;2023-12-20T13:54:14;19.90;48.60
73121;DHT22;61307;49.628;-1.624;2023-12-20T13:56:48;20.00;48.50
73121;DHT22;61307;49.628;-1.624;2023-12-20T13:59:15;20.10;48.40
73121;DHT22;61307;49.628;-1.624;2023-12-20T14:01:45;20.20;48.40
73121;DHT22;61307;49.628;-1.624;2023-12-20T14:04:12;20.30;48.30
73121;DHT22;61307;49.628;-1.624;2023-12-20T14:06:40;20.30;48.10
73121;DHT22;61307;49.628;-1.624;2023-12-20T14:09:08;20.50;48.10
73121;DHT22;61307;49.628;-1.624;2023-12-20T14:11:38;20.50;47.80
73121;DHT22;61307;49.628;-1.624;2023-12-20T14:14:08;20.70;47.80
73121;DHT22;61307;49.628;-1.624;2023-12-20T14:16:35;20.80;47.70
73121;DHT22;61307;49.628;-1.624;2023-12-20T14:19:03;20.90;47.50
73121;DHT22;61307;49.628;-1.624;2023-12-20T14:21:33;20.90;47.00
73121;DHT22;61307;49.628;-1.624;2023-12-20T14:24:00;21.10;47.10
73121;DHT22;61307;49.628;-1.624;2023-12-20T14:26:27;21.20;47.20
73121;DHT22;61307;49.628;-1.624;2023-12-20T14:28:54;21.20;47.10
73121;DHT22;61307;49.628;-1.624;2023-12-20T14:31:22;21.30;47.00
73121;DHT22;61307;49.628;-1.624;2023-12-20T14:33:50;21.40;46.90
73121;DHT22;61307;49.628;-1.624;2023-12-20T14:36:19;21.50;46.80
73121;DHT22;61307;49.628;-1.624;2023-12-20T14:38:46;21.50;46.70
73121;DHT22;61307;49.628;-1.624;2023-12-20T14:41:14;21.60;46.70
73121;DHT22;61307;49.628;-1.624;2023-12-20T14:43:41;21.60;46.50
73121;DHT22;61307;49.628;-1.624;2023-12-20T14:46:08;21.80;46.50
73121;DHT22;61307;49.628;-1.624;2023-12-20T14:48:36;21.80;46.30
73121;DHT22;61307;49.628;-1.624;2023-12-20T14:51:03;21.90;46.20
73121;DHT22;61307;49.628;-1.624;2023-12-20T14:53:31;22.00;46.10
73121;DHT22;61307;49.628;-1.624;2023-12-20T14:55:58;22.00;46.10
73121;DHT22;61307;49.628;-1.624;2023-12-20T14:58:25;22.00;46.20
73121;DHT22;61307;49.628;-1.624;2023-12-20T15:00:52;22.00;46.00
73121;DHT22;61307;49.628;-1.624;2023-12-20T15:03:19;22.00;46.10
73121;DHT22;61307;49.628;-1.624;2023-12-20T15:05:48;22.00;46.30
73121;DHT22;61307;49.628;-1.624;2023-12-20T15:08:15;21.90;46.30
73121;DHT22;61307;49.628;-1.624;2023-12-20T15:10:43;22.00;46.30
73121;DHT22;61307;49.628;-1.624;2023-12-20T15:13:10;22.00;46.30
73121;DHT22;61307;49.628;-1.624;2023-12-20T15:15:38;22.00;46.30
73121;DHT22;61307;49.628;-1.624;2023-12-20T15:18:05;22.10;46.20